Time;durP1;ratioP1;P1;durP2;ratioP2;P2;SDS_P1;SDS_P2;PMS_P1;PMS_P2;Temp;Humidity;BMP_temperature;BMP_pressure;BME280_temperature;BME280_humidity;BME280_pressure;Samples;Min_cycle;Max_cycle;Signal;HPM_P1;HPM_P2
2022/08/16 00:03:45;;;;;;;9.43;8.50;;;;;;;;;;10495890;28;20237;-67
2022/08/16 00:08:46;;;;;;;9.95;8.93;;;;;;;;;;10497132;28;20297;-66
2022/08/16 00:13:48;;;;;;;9.85;8.93;;;;;;;;;;10497870;28;20210;-67
2022/08/16 00:18:49;;;;;;;8.75;7.93;;;;;;;;;;10470894;28;20340;-67
2022/08/16 00:23:50;;;;;;;9.25;8.45;;;;;;;;;;10472861;28;20690;-66
2022/08/16 00:28:51;;;;;;;8.82;8.05;;;;;;;;;;10498799;28;20239;-67
2022/08/16 00:33:52;;;;;;;9.25;8.13;;;;;;;;;;10484036;28;20716;-67
2022/08/16 00:38:53;;;;;;;9.32;8.43;;;;;;;;;;10499068;28;20252;-68
2022/08/16 00:43:55;;;;;;;10.55;8.90;;;;;;;;;;10499593;28;20249;-68
2022/08/16 00:48:56;;;;;;;10.40;8.95;;;;;;;;;;10497362;28;20658;-68
2022/08/16 00:53:59;;;;;;;10.70;9.05;;;;;;;;;;10500455;28;21196;-67
2022/08/16 00:59:00;;;;;;;10.48;9.40;;;;;;;;;;10495455;28;20213;-68
2022/08/16 01:04:01;;;;;;;10.63;8.82;;;;;;;;;;10462985;28;20230;-69
2022/08/16 01:09:04;;;;;;;10.75;8.48;;;;;;;;;;10490467;28;20206;-68
2022/08/16 01:14:11;;;;;;;10.30;9.18;;;;;;;;;;10491857;28;20224;-67
2022/08/16 01:19:18;;;;;;;10.77;8.82;;;;;;;;;;10462221;28;20218;-68
2022/08/16 01:24:25;;;;;;;12.27;9.60;;;;;;;;;;10478172;28;20711;-69
2022/08/16 01:29:32;;;;;;;10.23;9.05;;;;;;;;;;10474951;28;20788;-68
2022/08/16 01:34:33;;;;;;;10.18;8.65;;;;;;;;;;10464483;28;20899;-67
2022/08/16 01:39:34;;;;;;;10.55;9.48;;;;;;;;;;10463976;28;20213;-67
2022/08/16 01:44:37;;;;;;;8.80;7.85;;;;;;;;;;10475355;28;20212;-67
2022/08/16 01:49:40;;;;;;;10.98;9.00;;;;;;;;;;10486549;28;20272;-68
2022/08/16 01:54:41;;;;;;;10.60;9.52;;;;;;;;;;10461829;28;20219;-67
2022/08/16 01:59:42;;;;;;;9.05;8.18;;;;;;;;;;10479193;28;20699;-66
2022/08/16 02:04:47;;;;;;;7.78;6.97;;;;;;;;;;10485512;28;20221;-67
2022/08/16 02:09:49;;;;;;;8.50;7.70;;;;;;;;;;10463922;28;20796;-67
2022/08/16 02:14:50;;;;;;;8.63;7.75;;;;;;;;;;10473740;28;20209;-67
2022/08/16 02:19:53;;;;;;;8.05;7.28;;;;;;;;;;10458199;28;20213;-67
2022/08/16 02:24:54;;;;;;;8.60;7.72;;;;;;;;;;10495757;28;20593;-67
2022/08/16 02:29:55;;;;;;;9.10;7.97;;;;;;;;;;10462360;28;20221;-67
2022/08/16 02:34:56;;;;;;;8.57;7.43;;;;;;;;;;10457777;28;20763;-66
2022/08/16 02:39:57;;;;;;;7.88;7.13;;;;;;;;;;10490295;28;20210;-67
2022/08/16 02:44:58;;;;;;;8.55;7.60;;;;;;;;;;10489836;28;20679;-65
2022/08/16 02:50:00;;;;;;;6.88;6.35;;;;;;;;;;10460534;28;20371;-67
2022/08/16 02:55:01;;;;;;;8.75;7.85;;;;;;;;;;10478209;28;20205;-67
2022/08/16 03:00:08;;;;;;;7.78;6.97;;;;;;;;;;10462581;28;20312;-67
2022/08/16 03:05:12;;;;;;;7.53;6.82;;;;;;;;;;10462841;28;20732;-65
2022/08/16 03:10:14;;;;;;;8.38;7.45;;;;;;;;;;10473869;28;20300;-67
2022/08/16 03:15:20;;;;;;;8.00;7.20;;;;;;;;;;10479978;28;20271;-68
2022/08/16 03:20:22;;;;;;;10.18;8.02;;;;;;;;;;10457799;28;20253;-67
2022/08/16 03:25:23;;;;;;;7.13;6.53;;;;;;;;;;10468041;28;20233;-66
2022/08/16 03:30:35;;;;;;;7.20;6.63;;;;;;;;;;10487232;28;20228;-67
2022/08/16 03:35:39;;;;;;;7.97;7.30;;;;;;;;;;10462647;28;20218;-67
2022/08/16 03:40:52;;;;;;;6.82;6.22;;;;;;;;;;10475402;28;20988;-66
2022/08/16 03:45:56;;;;;;;6.70;6.13;;;;;;;;;;10494218;28;20712;-67
2022/08/16 03:51:02;;;;;;;7.38;6.78;;;;;;;;;;10471496;28;20210;-67
2022/08/16 03:56:07;;;;;;;7.38;6.68;;;;;;;;;;10468921;28;20233;-67
2022/08/16 04:01:09;;;;;;;7.25;6.57;;;;;;;;;;10461886;28;20224;-66
2022/08/16 04:06:10;;;;;;;7.18;6.28;;;;;;;;;;10470771;28;20222;-68
2022/08/16 04:11:12;;;;;;;7.80;6.97;;;;;;;;;;10472471;28;20212;-67
2022/08/16 04:16:16;;;;;;;6.70;6.10;;;;;;;;;;10478793;28;20214;-68
2022/08/16 04:21:18;;;;;;;6.60;6.00;;;;;;;;;;10467687;28;20225;-67
2022/08/16 04:26:19;;;;;;;6.80;6.28;;;;;;;;;;10484421;28;20267;-66
2022/08/16 04:31:20;;;;;;;8.05;6.75;;;;;;;;;;10502746;28;20217;-67
2022/08/16 04:36:22;;;;;;;7.25;6.38;;;;;;;;;;10487457;28;20309;-67
2022/08/16 04:41:24;;;;;;;6.50;5.97;;;;;;;;;;10462485;28;20279;-63
2022/08/16 04:46:25;;;;;;;6.63;6.13;;;;;;;;;;10485849;28;20221;-62
2022/08/16 04:51:27;;;;;;;6.63;6.03;;;;;;;;;;10477013;28;20225;-61
2022/08/16 04:56:28;;;;;;;7.60;6.85;;;;;;;;;;10490250;28;20247;-62
2022/08/16 05:01:30;;;;;;;6.65;6.05;;;;;;;;;;10478275;28;20267;-61
2022/08/16 05:06:31;;;;;;;6.80;6.25;;;;;;;;;;10475038;28;20230;-62
2022/08/16 05:11:32;;;;;;;6.68;6.07;;;;;;;;;;10482983;28;20205;-62
2022/08/16 05:16:37;;;;;;;7.03;6.32;;;;;;;;;;10480003;28;20214;-62
2022/08/16 05:21:42;;;;;;;8.15;6.93;;;;;;;;;;10466142;28;20222;-61
2022/08/16 05:26:45;;;;;;;7.35;6.63;;;;;;;;;;10463489;28;20267;-62
2022/08/16 05:31:48;;;;;;;7.30;6.70;;;;;;;;;;10480490;28;20606;-61
2022/08/16 05:36:51;;;;;;;8.15;7.10;;;;;;;;;;10469759;28;20343;-62
2022/08/16 05:41:55;;;;;;;7.65;6.95;;;;;;;;;;10476654;28;20237;-62
2022/08/16 05:46:57;;;;;;;7.60;7.00;;;;;;;;;;10490308;28;20218;-67
2022/08/16 05:51:58;;;;;;;7.72;6.93;;;;;;;;;;10464684;28;20236;-66
2022/08/16 05:57:00;;;;;;;8.25;7.50;;;;;;;;;;10465437;28;20213;-66
2022/08/16 06:02:03;;;;;;;11.07;8.98;;;;;;;;;;10458763;28;20274;-67
2022/08/16 06:07:07;;;;;;;9.63;8.05;;;;;;;;;;10482458;28;20693;-66
2022/08/16 06:12:12;;;;;;;8.98;8.18;;;;;;;;;;10488992;28;20206;-67
2022/08/16 06:17:15;;;;;;;7.80;7.13;;;;;;;;;;10489430;28;20287;-67
2022/08/16 06:22:16;;;;;;;8.32;7.55;;;;;;;;;;10464075;28;20272;-67
2022/08/16 06:27:18;;;;;;;7.57;6.97;;;;;;;;;;10479156;28;20209;-66
2022/08/16 06:32:21;;;;;;;8.13;7.53;;;;;;;;;;10474697;28;20214;-67
2022/08/16 06:37:23;;;;;;;5.97;5.65;;;;;;;;;;10478860;28;20218;-66
2022/08/16 06:42:24;;;;;;;6.28;5.88;;;;;;;;;;10455030;28;20273;-66
2022/08/16 06:47:36;;;;;;;6.47;6.07;;;;;;;;;;10464014;28;20248;-67
2022/08/16 06:52:38;;;;;;;5.43;5.13;;;;;;;;;;10460491;28;20219;-67
2022/08/16 06:57:41;;;;;;;5.32;5.03;;;;;;;;;;10477381;28;20294;-66
2022/08/16 07:02:43;;;;;;;5.07;4.88;;;;;;;;;;10456586;28;20720;-66
2022/08/16 07:07:47;;;;;;;5.55;5.07;;;;;;;;;;10471082;28;20210;-65
2022/08/16 07:12:49;;;;;;;4.68;4.47;;;;;;;;;;10472062;28;20213;-66
2022/08/16 07:17:51;;;;;;;4.97;4.78;;;;;;;;;;10459681;28;20252;-66
2022/08/16 07:22:54;;;;;;;4.53;4.28;;;;;;;;;;10473524;28;20214;-66
2022/08/16 07:28:01;;;;;;;5.00;4.65;;;;;;;;;;10457370;28;20272;-65
2022/08/16 07:33:05;;;;;;;5.35;5.05;;;;;;;;;;10463781;28;20885;-66
2022/08/16 07:38:07;;;;;;;5.57;5.28;;;;;;;;;;10491666;28;20217;-67
2022/08/16 07:43:25;;;;;;;5.63;5.32;;;;;;;;;;10493790;28;20332;-68
2022/08/16 07:48:26;;;;;;;6.28;5.88;;;;;;;;;;10474386;28;20221;-68
2022/08/16 07:53:32;;;;;;;4.55;4.35;;;;;;;;;;10461579;28;20228;-68
2022/08/16 07:58:34;;;;;;;4.18;3.83;;;;;;;;;;10455345;28;20220;-68
2022/08/16 08:03:35;;;;;;;3.50;3.40;;;;;;;;;;10469448;28;20222;-67
2022/08/16 08:08:38;;;;;;;3.47;3.38;;;;;;;;;;10481436;28;20716;-68
2022/08/16 08:13:39;;;;;;;3.47;3.35;;;;;;;;;;10459939;28;20217;-68
2022/08/16 08:18:41;;;;;;;3.00;2.88;;;;;;;;;;10471734;28;20225;-68
2022/08/16 08:23:42;;;;;;;2.65;2.55;;;;;;;;;;10448558;28;20347;-67
2022/08/16 08:28:44;;;;;;;2.65;2.55;;;;;;;;;;10475545;28;20577;-68
2022/08/16 08:33:45;;;;;;;3.00;2.90;;;;;;;;;;10465682;28;20237;-68
2022/08/16 08:38:47;;;;;;;2.72;2.72;;;;;;;;;;10494918;28;20217;-68
2022/08/16 08:43:52;;;;;;;3.63;3.25;;;;;;;;;;10478099;28;20759;-68
2022/08/16 08:48:54;;;;;;;3.20;3.10;;;;;;;;;;10460648;28;20225;-68
2022/08/16 08:53:57;;;;;;;3.10;3.00;;;;;;;;;;10476314;28;20213;-67
2022/08/16 08:59:00;;;;;;;2.88;2.85;;;;;;;;;;10468787;28;20630;-68
2022/08/16 09:04:11;;;;;;;3.33;3.20;;;;;;;;;;10478759;28;20222;-68
2022/08/16 09:09:12;;;;;;;2.88;2.78;;;;;;;;;;10460840;28;20228;-67
2022/08/16 09:14:14;;;;;;;2.85;2.75;;;;;;;;;;10476271;28;20763;-67
2022/08/16 09:19:15;;;;;;;2.65;2.55;;;;;;;;;;10482898;28;20584;-66
2022/08/16 09:24:17;;;;;;;1.83;1.83;;;;;;;;;;10479782;28;20222;-67
2022/08/16 09:29:20;;;;;;;2.40;2.28;;;;;;;;;;10473759;28;20320;-68
2022/08/16 09:34:21;;;;;;;1.35;1.35;;;;;;;;;;10479481;28;20222;-66
2022/08/16 09:39:23;;;;;;;2.05;2.05;;;;;;;;;;10492107;28;20240;-67
2022/08/16 09:44:25;;;;;;;1.85;1.85;;;;;;;;;;10494328;28;20302;-67
2022/08/16 09:49:26;;;;;;;1.80;1.70;;;;;;;;;;10492457;28;20225;-68
2022/08/16 09:54:27;;;;;;;1.50;1.50;;;;;;;;;;10471203;28;20319;-67
2022/08/16 09:59:29;;;;;;;1.60;1.60;;;;;;;;;;10492474;28;20222;-67
2022/08/16 10:04:30;;;;;;;1.48;1.48;;;;;;;;;;10496461;28;20252;-67
2022/08/16 10:09:31;;;;;;;1.60;1.60;;;;;;;;;;10486991;28;20296;-65
2022/08/16 10:14:32;;;;;;;1.55;1.55;;;;;;;;;;10485864;28;20217;-66
2022/08/16 10:19:33;;;;;;;1.60;1.60;;;;;;;;;;10486953;28;20224;-66
2022/08/16 10:24:35;;;;;;;1.27;1.25;;;;;;;;;;10485071;28;20799;-67
2022/08/16 10:29:36;;;;;;;1.55;1.55;;;;;;;;;;10480963;28;20267;-67
2022/08/16 10:34:37;;;;;;;1.45;1.45;;;;;;;;;;10486809;28;20221;-66
2022/08/16 10:39:41;;;;;;;1.27;1.27;;;;;;;;;;10487198;28;20244;-67
2022/08/16 10:44:42;;;;;;;1.00;1.00;;;;;;;;;;10481282;28;20222;-67
2022/08/16 10:49:43;;;;;;;1.58;1.52;;;;;;;;;;10487812;28;20213;-68
2022/08/16 10:54:44;;;;;;;1.48;1.48;;;;;;;;;;10488487;28;20202;-67
2022/08/16 10:59:45;;;;;;;1.23;1.23;;;;;;;;;;10451949;28;20222;-68
2022/08/16 11:04:46;;;;;;;1.10;1.10;;;;;;;;;;10485573;28;20234;-66
2022/08/16 11:09:48;;;;;;;1.48;1.48;;;;;;;;;;10488180;28;20237;-67
2022/08/16 11:14:49;;;;;;;1.13;1.13;;;;;;;;;;10486237;28;20210;-66
2022/08/16 11:19:50;;;;;;;1.20;1.20;;;;;;;;;;10488245;28;20214;-67
2022/08/16 11:24:51;;;;;;;1.13;1.13;;;;;;;;;;10481433;28;20205;-65
2022/08/16 11:29:53;;;;;;;0.90;0.90;;;;;;;;;;10485962;28;20213;-67
2022/08/16 11:34:55;;;;;;;1.10;1.10;;;;;;;;;;10483321;28;20205;-66
2022/08/16 11:39:56;;;;;;;1.00;1.00;;;;;;;;;;10481644;28;20317;-67
2022/08/16 11:44:57;;;;;;;0.90;0.90;;;;;;;;;;10469662;28;20279;-67
2022/08/16 11:49:59;;;;;;;1.00;1.00;;;;;;;;;;10481398;28;20309;-67
2022/08/16 11:55:00;;;;;;;2.13;1.25;;;;;;;;;;10455238;28;20309;-67
2022/08/16 12:00:01;;;;;;;1.38;0.80;;;;;;;;;;10478142;28;20213;-67
2022/08/16 12:05:14;;;;;;;0.93;0.93;;;;;;;;;;10461431;28;20214;-66
2022/08/16 12:10:17;;;;;;;1.08;1.08;;;;;;;;;;10482306;28;20965;-66
2022/08/16 12:15:19;;;;;;;2.08;1.20;;;;;;;;;;10490145;28;20185;-66
2022/08/16 12:20:23;;;;;;;0.70;0.70;;;;;;;;;;10488164;28;20242;-66
2022/08/16 12:25:25;;;;;;;0.80;0.80;;;;;;;;;;10498166;28;20660;-66
2022/08/16 12:30:29;;;;;;;0.90;0.90;;;;;;;;;;10493843;28;20245;-65
2022/08/16 12:35:31;;;;;;;0.65;0.65;;;;;;;;;;10501841;28;20209;-65
2022/08/16 12:40:35;;;;;;;0.90;0.90;;;;;;;;;;10493236;28;20283;-66
2022/08/16 12:45:39;;;;;;;1.00;1.00;;;;;;;;;;10487199;28;20206;-66
2022/08/16 12:50:40;;;;;;;0.73;0.73;;;;;;;;;;10470152;28;20721;-62
2022/08/16 12:55:43;;;;;;;0.98;0.98;;;;;;;;;;10488476;28;20224;-64
2022/08/16 13:00:44;;;;;;;0.88;0.88;;;;;;;;;;10494084;28;20396;-65
2022/08/16 13:05:48;;;;;;;0.77;0.77;;;;;;;;;;10482811;28;20402;-66
2022/08/16 13:10:50;;;;;;;0.73;0.73;;;;;;;;;;10456717;28;20706;-67
2022/08/16 13:15:52;;;;;;;0.70;0.70;;;;;;;;;;10484632;28;20210;-68
2022/08/16 13:20:54;;;;;;;0.85;0.85;;;;;;;;;;10487152;28;20241;-67
2022/08/16 13:25:56;;;;;;;0.93;0.93;;;;;;;;;;10457419;28;20210;-67
2022/08/16 13:30:57;;;;;;;0.75;0.75;;;;;;;;;;10495267;28;20328;-67
2022/08/16 13:35:59;;;;;;;0.85;0.85;;;;;;;;;;10492717;28;20210;-66
2022/08/16 13:41:04;;;;;;;0.80;0.80;;;;;;;;;;10477161;28;20214;-66
2022/08/16 13:46:06;;;;;;;0.70;0.70;;;;;;;;;;10496344;28;20254;-66
2022/08/16 13:51:07;;;;;;;0.63;0.63;;;;;;;;;;10497205;28;20770;-67
2022/08/16 13:56:08;;;;;;;0.85;0.85;;;;;;;;;;10478395;28;20233;-66
2022/08/16 14:01:10;;;;;;;0.73;0.73;;;;;;;;;;10496099;28;20221;-67
2022/08/16 14:06:12;;;;;;;1.08;0.80;;;;;;;;;;10482346;28;20591;-66
2022/08/16 14:11:14;;;;;;;0.68;0.68;;;;;;;;;;10493082;28;20228;-67
2022/08/16 14:16:16;;;;;;;0.80;0.80;;;;;;;;;;10492141;28;20304;-66
2022/08/16 14:21:18;;;;;;;0.75;0.75;;;;;;;;;;10492096;28;20799;-68
2022/08/16 14:26:20;;;;;;;0.70;0.70;;;;;;;;;;10461994;28;20222;-67
2022/08/16 14:31:21;;;;;;;0.98;0.98;;;;;;;;;;10478819;28;20222;-66
2022/08/16 14:36:22;;;;;;;0.90;0.90;;;;;;;;;;10481154;28;20214;-67
2022/08/16 14:41:23;;;;;;;0.90;0.90;;;;;;;;;;10476731;28;20726;-66
2022/08/16 14:46:24;;;;;;;0.68;0.68;;;;;;;;;;10474092;28;20340;-67
2022/08/16 14:51:25;;;;;;;0.60;0.60;;;;;;;;;;10474940;28;20659;-67
2022/08/16 14:56:26;;;;;;;0.70;0.68;;;;;;;;;;10479556;28;20274;-65
2022/08/16 15:01:27;;;;;;;0.70;0.70;;;;;;;;;;10483333;28;20290;-64
2022/08/16 15:06:29;;;;;;;0.90;0.90;;;;;;;;;;10486771;28;20225;-66
2022/08/16 15:11:30;;;;;;;0.60;0.60;;;;;;;;;;10484092;28;20209;-67
2022/08/16 15:16:31;;;;;;;0.63;0.63;;;;;;;;;;10477613;28;20220;-68
2022/08/16 15:21:34;;;;;;;0.70;0.70;;;;;;;;;;10476671;28;20225;-68
2022/08/16 15:26:35;;;;;;;1.15;0.77;;;;;;;;;;10476999;28;20304;-66
2022/08/16 15:31:36;;;;;;;0.70;0.70;;;;;;;;;;10469693;28;20213;-65
2022/08/16 15:36:38;;;;;;;0.70;0.70;;;;;;;;;;10475350;28;20262;-67
2022/08/16 15:41:39;;;;;;;0.80;0.80;;;;;;;;;;10483224;28;20226;-68
2022/08/16 15:46:40;;;;;;;0.65;0.65;;;;;;;;;;10466206;28;20251;-66
2022/08/16 15:51:42;;;;;;;0.80;0.80;;;;;;;;;;10489562;28;20305;-66
2022/08/16 15:56:43;;;;;;;0.70;0.70;;;;;;;;;;10495278;28;20226;-69
2022/08/16 16:01:44;;;;;;;0.60;0.60;;;;;;;;;;10492534;28;20254;-67
2022/08/16 16:06:47;;;;;;;0.85;0.70;;;;;;;;;;10492223;28;20212;-65
2022/08/16 16:11:48;;;;;;;0.90;0.90;;;;;;;;;;10488126;28;20248;-66
2022/08/16 16:16:51;;;;;;;1.02;1.02;;;;;;;;;;10483784;28;20741;-66
2022/08/16 16:21:52;;;;;;;0.82;0.82;;;;;;;;;;10486154;28;20253;-66
2022/08/16 16:26:53;;;;;;;0.88;0.88;;;;;;;;;;10489848;28;20705;-66
2022/08/16 16:31:54;;;;;;;1.95;0.80;;;;;;;;;;10488873;28;20313;-68
2022/08/16 16:36:55;;;;;;;0.70;0.70;;;;;;;;;;10487927;28;20853;-68
2022/08/16 16:41:56;;;;;;;0.70;0.70;;;;;;;;;;10489364;28;20311;-68
2022/08/16 16:46:58;;;;;;;0.63;0.63;;;;;;;;;;10483160;28;20615;-68
2022/08/16 16:52:00;;;;;;;1.00;1.00;;;;;;;;;;10483201;28;20209;-66
2022/08/16 16:57:01;;;;;;;0.73;0.73;;;;;;;;;;10483587;28;20218;-66
2022/08/16 17:02:02;;;;;;;1.02;1.02;;;;;;;;;;10463812;28;20831;-66
2022/08/16 17:07:03;;;;;;;0.98;0.98;;;;;;;;;;10487107;28;20222;-66
2022/08/16 17:12:05;;;;;;;0.90;0.90;;;;;;;;;;10488262;28;20250;-68
2022/08/16 17:17:07;;;;;;;0.88;0.88;;;;;;;;;;10491207;28;20210;-67
2022/08/16 17:22:10;;;;;;;0.90;0.90;;;;;;;;;;10486166;28;20233;-67
2022/08/16 17:27:11;;;;;;;0.80;0.80;;;;;;;;;;10491427;28;20232;-67
2022/08/16 17:32:12;;;;;;;0.73;0.73;;;;;;;;;;10491800;28;20217;-67
2022/08/16 17:37:13;;;;;;;0.90;0.82;;;;;;;;;;10492129;28;20214;-66
2022/08/16 17:42:16;;;;;;;1.02;0.90;;;;;;;;;;10466378;28;20229;-67
2022/08/16 17:47:17;;;;;;;0.90;0.90;;;;;;;;;;10483536;28;20831;-67
2022/08/16 17:52:18;;;;;;;0.73;0.73;;;;;;;;;;10493960;28;20317;-68
2022/08/16 17:57:19;;;;;;;1.45;1.45;;;;;;;;;;10467915;28;20234;-68
2022/08/16 18:02:23;;;;;;;1.52;1.52;;;;;;;;;;10486250;28;20233;-67
2022/08/16 18:07:25;;;;;;;1.70;1.60;;;;;;;;;;10464886;28;20870;-66
2022/08/16 18:12:28;;;;;;;1.65;1.55;;;;;;;;;;10476195;28;20221;-65
2022/08/16 18:17:30;;;;;;;1.48;1.48;;;;;;;;;;10479014;28;20214;-66
2022/08/16 18:22:32;;;;;;;1.48;1.48;;;;;;;;;;10483903;28;20221;-65
2022/08/16 18:27:35;;;;;;;1.40;1.40;;;;;;;;;;10484381;28;20218;-64
2022/08/16 18:32:36;;;;;;;1.08;1.08;;;;;;;;;;10456126;28;20246;-64
2022/08/16 18:37:37;;;;;;;1.23;1.23;;;;;;;;;;10478510;28;20206;-65
2022/08/16 18:42:38;;;;;;;1.35;1.35;;;;;;;;;;10481343;28;20226;-64
2022/08/16 18:47:39;;;;;;;1.48;1.48;;;;;;;;;;10477406;28;20216;-64
2022/08/16 18:52:47;;;;;;;1.35;1.35;;;;;;;;;;10480430;28;20616;-68
2022/08/16 18:57:49;;;;;;;1.60;1.60;;;;;;;;;;10484877;28;20291;-70
2022/08/16 19:02:50;;;;;;;1.30;1.30;;;;;;;;;;10459141;28;20241;-71
2022/08/16 19:07:51;;;;;;;1.70;1.60;;;;;;;;;;10474059;28;20668;-68
2022/08/16 19:12:52;;;;;;;1.70;1.70;;;;;;;;;;10482962;28;20219;-68
2022/08/16 19:17:54;;;;;;;2.08;2.00;;;;;;;;;;10475396;28;20268;-71
2022/08/16 19:22:55;;;;;;;0.80;0.80;;;;;;;;;;10478833;28;20596;-68
2022/08/16 19:27:56;;;;;;;1.13;1.10;;;;;;;;;;10446561;28;20216;-69
2022/08/16 19:32:57;;;;;;;1.10;1.10;;;;;;;;;;10471623;28;20879;-68
2022/08/16 19:37:58;;;;;;;1.05;1.05;;;;;;;;;;10469581;28;20325;-66
2022/08/16 19:42:59;;;;;;;1.20;1.20;;;;;;;;;;10479445;28;21525;-65
2022/08/16 19:48:02;;;;;;;1.27;1.20;;;;;;;;;;10476073;28;20241;-66
2022/08/16 19:53:05;;;;;;;1.17;1.17;;;;;;;;;;10470167;28;20601;-64
2022/08/16 19:58:06;;;;;;;0.90;0.90;;;;;;;;;;10477336;28;20365;-66
2022/08/16 20:03:12;;;;;;;1.85;1.40;;;;;;;;;;10480048;28;20251;-66
2022/08/16 20:08:15;;;;;;;1.20;1.20;;;;;;;;;;10459943;28;20217;-66
2022/08/16 20:13:20;;;;;;;1.20;1.20;;;;;;;;;;10491114;28;20220;-67
2022/08/16 20:18:21;;;;;;;1.10;1.10;;;;;;;;;;10474216;28;20698;-66
2022/08/16 20:23:23;;;;;;;1.70;1.70;;;;;;;;;;10491958;28;20221;-68
2022/08/16 20:28:24;;;;;;;1.13;1.13;;;;;;;;;;10501636;28;20206;-67
2022/08/16 20:33:25;;;;;;;1.20;1.20;;;;;;;;;;10470999;28;20772;-66
2022/08/16 20:38:26;;;;;;;1.20;1.20;;;;;;;;;;10503206;28;20209;-68
2022/08/16 20:43:27;;;;;;;1.23;1.23;;;;;;;;;;10496969;28;20738;-67
2022/08/16 20:48:28;;;;;;;1.10;1.10;;;;;;;;;;10483269;28;20587;-67
2022/08/16 20:53:29;;;;;;;1.13;1.13;;;;;;;;;;10461717;28;20270;-66
2022/08/16 20:58:30;;;;;;;1.48;1.38;;;;;;;;;;10493013;28;20287;-66
2022/08/16 21:03:31;;;;;;;1.50;1.50;;;;;;;;;;10494192;28;20662;-67
2022/08/16 21:08:33;;;;;;;1.40;1.40;;;;;;;;;;10497177;28;20210;-67
2022/08/16 21:13:34;;;;;;;1.50;1.50;;;;;;;;;;10501777;28;20262;-67
2022/08/16 21:18:35;;;;;;;1.20;1.20;;;;;;;;;;10469328;28;20217;-67
2022/08/16 21:23:36;;;;;;;1.38;1.38;;;;;;;;;;10482711;28;20218;-67
2022/08/16 21:28:37;;;;;;;2.00;1.90;;;;;;;;;;10497389;28;20206;-67
2022/08/16 21:33:38;;;;;;;1.83;1.73;;;;;;;;;;10477697;28;20229;-68
2022/08/16 21:38:39;;;;;;;1.40;1.13;;;;;;;;;;10473165;28;21703;-67
2022/08/16 21:43:41;;;;;;;1.48;1.48;;;;;;;;;;10501186;28;20222;-68
2022/08/16 21:48:42;;;;;;;1.77;1.67;;;;;;;;;;10468395;28;20272;-68
2022/08/16 21:53:43;;;;;;;1.48;1.48;;;;;;;;;;10488591;28;20210;-68
2022/08/16 21:58:45;;;;;;;1.17;1.17;;;;;;;;;;10450943;28;20612;-68
2022/08/16 22:03:46;;;;;;;1.70;1.60;;;;;;;;;;10495660;28;20236;-67
2022/08/16 22:08:48;;;;;;;1.83;1.73;;;;;;;;;;10488087;28;20221;-67
2022/08/16 22:13:49;;;;;;;1.38;1.38;;;;;;;;;;10492696;28;20229;-68
2022/08/16 22:18:50;;;;;;;1.52;1.52;;;;;;;;;;10488975;28;20737;-67
2022/08/16 22:23:52;;;;;;;1.90;1.90;;;;;;;;;;10488417;28;20224;-67
2022/08/16 22:28:53;;;;;;;1.73;1.67;;;;;;;;;;10494758;28;21120;-67
2022/08/16 22:33:55;;;;;;;2.05;1.95;;;;;;;;;;10494449;28;20210;-67
2022/08/16 22:38:57;;;;;;;2.50;2.42;;;;;;;;;;10491814;28;20214;-68
2022/08/16 22:43:58;;;;;;;2.22;2.13;;;;;;;;;;10477170;28;20717;-67
2022/08/16 22:48:59;;;;;;;2.20;2.10;;;;;;;;;;10495519;28;21156;-68
2022/08/16 22:54:01;;;;;;;1.58;1.52;;;;;;;;;;10464007;28;20222;-68
2022/08/16 22:59:02;;;;;;;1.98;1.98;;;;;;;;;;10491741;28;20209;-68
2022/08/16 23:04:03;;;;;;;2.00;2.00;;;;;;;;;;10489291;28;20225;-67
2022/08/16 23:09:04;;;;;;;2.00;2.00;;;;;;;;;;10485511;28;20222;-68
2022/08/16 23:14:05;;;;;;;2.28;2.22;;;;;;;;;;10489461;28;20242;-68
2022/08/16 23:19:08;;;;;;;1.90;1.90;;;;;;;;;;10493121;28;20918;-67
2022/08/16 23:24:10;;;;;;;1.90;1.90;;;;;;;;;;10467634;28;20214;-67
2022/08/16 23:29:11;;;;;;;1.92;1.92;;;;;;;;;;10490569;28;20242;-68
2022/08/16 23:34:12;;;;;;;1.85;1.85;;;;;;;;;;10465106;28;20218;-68
2022/08/16 23:39:13;;;;;;;2.33;2.25;;;;;;;;;;10489054;28;20206;-68
2022/08/16 23:44:14;;;;;;;1.92;1.83;;;;;;;;;;10490249;28;20603;-68
2022/08/16 23:49:15;;;;;;;2.25;2.25;;;;;;;;;;10489677;28;20209;-68
2022/08/16 23:54:16;;;;;;;2.60;2.50;;;;;;;;;;10467765;28;20210;-67
2022/08/16 23:59:17;;;;;;;2.25;2.08;;;;;;;;;;10484500;28;20290;-68
